Time;durP1;ratioP1;P1;durP2;ratioP2;P2;SDS_P1;SDS_P2;PMS_P1;PMS_P2;Temp;Humidity;BMP_temperature;BMP_pressure;BME280_temperature;BME280_humidity;BME280_pressure;Samples;Min_cycle;Max_cycle;Signal;HPM_P1;HPM_P2
2022/06/23 00:00:32;;;;;;;4.25;1.33;;;22.40;73.50;;;;;;5033411;28;20130;-77
2022/06/23 00:03:01;;;;;;;5.15;1.50;;;22.40;72.80;;;;;;5034268;28;20037;-77
2022/06/23 00:05:40;;;;;;;4.75;1.40;;;22.60;73.30;;;;;;5034014;28;20081;-75
2022/06/23 00:08:14;;;;;;;4.85;1.30;;;22.60;72.20;;;;;;5030499;28;20423;-75
2022/06/23 00:10:48;;;;;;;4.00;0.88;;;22.50;72.20;;;;;;5036660;28;20058;-76
2022/06/23 00:13:33;;;;;;;1.10;0.40;;;22.40;69.60;;;;;;5031561;28;20076;-75
2022/06/23 00:16:02;;;;;;;2.83;0.52;;;22.40;66.10;;;;;;5023728;28;20044;-76
2022/06/23 00:18:35;;;;;;;1.13;0.55;;;22.30;64.60;;;;;;5032933;28;20049;-76
2022/06/23 00:21:24;;;;;;;3.30;0.82;;;22.40;64.20;;;;;;5030668;28;20044;-76
2022/06/23 00:23:59;;;;;;;2.53;0.40;;;22.40;63.40;;;;;;5046972;28;20414;-76
2022/06/23 00:26:30;;;;;;;1.50;0.50;;;22.30;62.70;;;;;;5034434;28;20049;-76
2022/06/23 00:29:11;;;;;;;1.42;0.50;;;22.30;62.70;;;;;;5038038;28;20060;-76
2022/06/23 00:31:45;;;;;;;1.73;0.50;;;22.30;61.50;;;;;;5036812;28;20269;-76
2022/06/23 00:34:35;;;;;;;1.83;0.40;;;22.20;61.00;;;;;;5036499;28;20123;-76
2022/06/23 00:37:13;;;;;;;1.38;0.30;;;22.20;60.10;;;;;;5032849;28;20052;-76
2022/06/23 00:39:55;;;;;;;2.00;0.45;;;22.30;60.30;;;;;;5033029;28;20064;-76
2022/06/23 00:42:24;;;;;;;;;;;22.20;59.50;;;;;;5029385;28;20049;-77
2022/06/23 00:44:58;;;;;;;2.05;0.38;;;22.10;59.20;;;;;;5034075;28;20415;-76
2022/06/23 00:47:37;;;;;;;2.13;0.38;;;22.00;59.00;;;;;;5031188;28;20411;-76
2022/06/23 00:50:24;;;;;;;1.67;0.30;;;22.00;59.00;;;;;;5033107;28;20132;-75
2022/06/23 00:53:10;;;;;;;1.08;0.30;;;21.90;58.50;;;;;;5033247;28;20037;-76
2022/06/23 00:55:41;;;;;;;1.02;0.40;;;22.00;58.20;;;;;;5015104;28;20662;-76
2022/06/23 00:58:43;;;;;;;2.25;0.50;;;22.00;58.60;;;;;;5032186;28;20044;-76
2022/06/23 01:01:22;;;;;;;1.05;0.20;;;22.00;58.20;;;;;;5030704;28;20055;-76
2022/06/23 01:03:59;;;;;;;2.40;0.22;;;21.90;58.20;;;;;;5021821;28;20068;-76
2022/06/23 01:06:35;;;;;;;0.95;0.40;;;21.90;58.00;;;;;;5034224;28;20108;-76
2022/06/23 01:09:21;;;;;;;1.55;0.20;;;21.80;57.80;;;;;;5031389;28;20055;-76
2022/06/23 01:11:55;;;;;;;2.60;0.95;;;21.80;57.80;;;;;;5035430;28;20072;-76
2022/06/23 01:14:53;;;;;;;1.13;0.40;;;21.60;58.00;;;;;;5028880;28;20498;-76
2022/06/23 01:17:25;;;;;;;1.00;0.40;;;21.60;60.70;;;;;;5035750;28;20052;-77
2022/06/23 01:19:58;;;;;;;1.48;0.20;;;21.50;61.60;;;;;;5032689;28;20045;-77
2022/06/23 01:22:55;;;;;;;1.52;0.30;;;21.50;63.20;;;;;;5035416;28;20077;-76
2022/06/23 01:25:54;;;;;;;1.27;0.32;;;21.50;62.40;;;;;;5019403;28;20278;-75
2022/06/23 01:28:24;;;;;;;1.98;0.30;;;21.30;64.00;;;;;;5035742;28;20051;-75
2022/06/23 01:31:10;;;;;;;2.72;0.40;;;21.20;64.80;;;;;;5024929;28;20607;-76
2022/06/23 01:33:39;;;;;;;1.10;0.40;;;21.20;66.30;;;;;;5035922;28;20103;-76
2022/06/23 01:36:16;;;;;;;3.40;0.45;;;21.10;64.80;;;;;;5034975;28;20037;-76
2022/06/23 01:38:55;;;;;;;0.57;0.22;;;21.20;65.50;;;;;;5039122;28;20052;-76
2022/06/23 01:41:29;;;;;;;0.90;0.30;;;21.10;65.60;;;;;;5016416;28;20053;-76
2022/06/23 01:44:06;;;;;;;2.38;0.40;;;21.20;67.20;;;;;;5029700;28;20046;-77
2022/06/23 01:46:39;;;;;;;0.93;0.38;;;21.10;68.30;;;;;;5034395;28;20049;-76
2022/06/23 01:49:21;;;;;;;1.63;0.63;;;21.00;68.00;;;;;;5039210;28;20156;-76
2022/06/23 01:51:51;;;;;;;1.25;0.50;;;21.00;69.00;;;;;;5037580;28;20048;-77
2022/06/23 01:54:21;;;;;;;0.80;0.28;;;20.90;68.40;;;;;;5023160;28;20037;-76
2022/06/23 01:56:57;;;;;;;1.27;0.40;;;20.90;69.00;;;;;;5043502;28;20086;-76
2022/06/23 02:00:03;;;;;;;1.58;0.43;;;20.90;69.30;;;;;;5032465;28;20307;-76
2022/06/23 02:03:15;;;;;;;1.92;0.50;;;20.80;69.60;;;;;;5026985;28;20140;-77
2022/06/23 02:06:01;;;;;;;0.65;0.20;;;20.70;71.30;;;;;;5034743;28;20049;-76
2022/06/23 02:08:42;;;;;;;2.13;0.30;;;20.60;71.80;;;;;;5026813;28;20052;-75
2022/06/23 02:11:15;;;;;;;1.60;0.50;;;20.60;71.50;;;;;;5035704;28;20046;-78
2022/06/23 02:14:02;;;;;;;1.00;0.30;;;20.40;72.40;;;;;;5014278;28;20053;-75
2022/06/23 02:16:57;;;;;;;0.98;0.30;;;20.40;71.50;;;;;;5025300;28;20041;-76
2022/06/23 02:20:06;;;;;;;0.70;0.30;;;20.40;70.70;;;;;;5032569;28;20136;-77
2022/06/23 02:22:40;;;;;;;3.08;0.65;;;20.40;71.50;;;;;;5010275;28;20504;-76
2022/06/23 02:25:25;;;;;;;2.25;0.52;;;20.50;71.50;;;;;;5033453;28;20056;-76
2022/06/23 02:28:11;;;;;;;1.10;0.50;;;20.40;71.50;;;;;;5016648;28;20125;-77
2022/06/23 02:30:44;;;;;;;3.00;0.40;;;20.30;71.20;;;;;;5045548;28;20041;-77
2022/06/23 02:33:26;;;;;;;1.38;0.50;;;20.20;71.90;;;;;;5041908;28;20041;-77
2022/06/23 02:36:24;;;;;;;1.35;0.40;;;20.10;72.70;;;;;;5033198;28;20389;-76
2022/06/23 02:38:55;;;;;;;0.88;0.40;;;20.10;72.00;;;;;;5029513;28;20052;-77
2022/06/23 02:41:28;;;;;;;2.15;0.50;;;20.20;72.10;;;;;;5018371;28;20708;-76
2022/06/23 02:44:26;;;;;;;1.83;0.57;;;20.20;72.10;;;;;;5032300;28;20061;-75
2022/06/23 02:47:19;;;;;;;1.50;0.55;;;20.20;72.30;;;;;;5030786;28;20485;-76
2022/06/23 02:49:46;;;;;;;1.10;0.47;;;20.20;72.90;;;;;;5034491;28;20057;-77
2022/06/23 02:52:34;;;;;;;1.23;0.52;;;20.20;72.90;;;;;;5033524;28;20083;-76
2022/06/23 02:55:35;;;;;;;1.17;0.43;;;20.10;72.80;;;;;;5016898;28;20535;-76
2022/06/23 02:58:32;;;;;;;1.88;0.82;;;20.10;72.70;;;;;;5015797;28;20048;-76
2022/06/23 03:01:40;;;;;;;2.03;0.52;;;20.20;72.90;;;;;;5035228;28;20049;-76
2022/06/23 03:04:19;;;;;;;5.32;0.50;;;20.20;72.90;;;;;;5016059;28;20046;-76
2022/06/23 03:06:49;;;;;;;1.48;0.50;;;20.20;72.30;;;;;;5028579;28;20411;-77
2022/06/23 03:09:28;;;;;;;2.10;0.43;;;20.30;72.70;;;;;;5017411;28;20045;-76
2022/06/23 03:12:02;;;;;;;1.55;0.50;;;20.20;72.30;;;;;;5014571;28;20673;-76
2022/06/23 03:14:48;;;;;;;2.28;0.47;;;20.10;72.50;;;;;;5033088;28;20149;-76
2022/06/23 03:17:15;;;;;;;1.25;0.65;;;19.90;73.40;;;;;;5027662;28;20130;-77
2022/06/23 03:19:57;;;;;;;2.63;0.50;;;19.80;74.10;;;;;;5015340;28;20045;-75
2022/06/23 03:22:28;;;;;;;2.47;0.47;;;19.70;74.50;;;;;;5028765;28;20906;-76
2022/06/23 03:25:30;;;;;;;2.30;0.60;;;19.70;75.30;;;;;;5027535;28;20068;-75
2022/06/23 03:28:15;;;;;;;2.25;0.45;;;20.00;74.70;;;;;;5033713;28;20427;-76
2022/06/23 03:31:08;;;;;;;4.10;0.60;;;19.90;75.00;;;;;;5022822;28;20416;-76
2022/06/23 03:33:43;;;;;;;1.35;0.45;;;19.80;75.50;;;;;;5025400;28;20140;-76
2022/06/23 03:36:42;;;;;;;2.47;0.68;;;20.10;75.60;;;;;;5025708;28;20581;-76
2022/06/23 03:42:17;;;;;;;1.10;0.60;;;19.90;76.40;;;;;;5032489;28;20048;-76
2022/06/23 03:45:22;;;;;;;2.00;0.50;;;19.70;76.50;;;;;;5032438;28;20037;-76
2022/06/23 03:47:58;;;;;;;1.05;0.50;;;19.90;76.10;;;;;;5032120;28;20672;-75
2022/06/23 03:50:27;;;;;;;1.27;0.45;;;19.80;75.30;;;;;;5034634;28;20095;-76
2022/06/23 03:52:59;;;;;;;0.90;0.40;;;20.10;75.30;;;;;;5034638;28;20246;-76
2022/06/23 03:55:38;;;;;;;;;;;20.20;74.30;;;;;;5033083;28;20040;-76
2022/06/23 03:58:17;;;;;;;0.85;0.40;;;20.20;73.50;;;;;;5035773;28;19975;-75
2022/06/23 04:01:05;;;;;;;1.33;0.50;;;20.10;73.60;;;;;;5028913;28;20049;-76
2022/06/23 04:04:01;;;;;;;2.15;0.50;;;20.10;74.10;;;;;;5027905;28;20042;-76
2022/06/23 04:06:34;;;;;;;1.65;0.30;;;20.20;73.20;;;;;;5027349;28;20033;-76
2022/06/23 04:09:07;;;;;;;2.03;0.40;;;19.90;72.80;;;;;;5034731;28;20038;-76
2022/06/23 04:11:51;;;;;;;1.83;0.65;;;20.00;73.40;;;;;;5024848;28;20045;-76
2022/06/23 04:14:38;;;;;;;2.53;0.55;;;20.10;73.80;;;;;;5011046;28;20626;-76
2022/06/23 04:17:16;;;;;;;1.15;0.50;;;20.20;73.50;;;;;;5019466;28;20046;-76
2022/06/23 04:20:10;;;;;;;5.05;0.82;;;20.20;73.10;;;;;;5035589;28;20057;-76
2022/06/23 04:22:49;;;;;;;2.80;0.90;;;20.30;71.80;;;;;;5029343;28;20065;-76
2022/06/23 04:25:22;;;;;;;3.20;0.90;;;20.40;71.60;;;;;;5017264;28;20072;-76
2022/06/23 04:27:57;;;;;;;3.47;1.27;;;20.40;71.20;;;;;;5031471;28;20037;-76
2022/06/23 04:30:30;;;;;;;4.97;1.98;;;20.60;70.30;;;;;;5034277;28;20072;-76
2022/06/23 04:33:00;;;;;;;6.32;2.85;;;20.70;70.80;;;;;;5016846;28;20045;-76
2022/06/23 04:35:36;;;;;;;7.20;2.67;;;20.70;70.00;;;;;;5017737;28;20041;-76
2022/06/23 04:38:12;;;;;;;4.43;2.10;;;20.90;71.10;;;;;;5025652;28;20598;-76
2022/06/23 04:40:42;;;;;;;6.25;2.60;;;21.10;70.10;;;;;;5032446;28;20045;-76
2022/06/23 04:43:29;;;;;;;5.15;0.60;;;21.30;69.30;;;;;;5033037;28;20218;-78
2022/06/23 04:46:02;;;;;;;1.95;0.80;;;21.30;66.80;;;;;;5014659;28;20049;-76
2022/06/23 04:48:38;;;;;;;2.55;0.40;;;21.30;66.10;;;;;;5030946;28;20063;-76
2022/06/23 04:51:30;;;;;;;3.00;0.50;;;21.40;65.40;;;;;;5032488;28;20045;-75
2022/06/23 04:53:57;;;;;;;2.70;0.50;;;21.40;66.10;;;;;;5035008;28;20049;-76
2022/06/23 04:56:50;;;;;;;1.77;0.60;;;21.30;64.90;;;;;;5036713;28;20049;-76
2022/06/23 04:59:30;;;;;;;2.08;0.50;;;21.40;64.70;;;;;;5032538;28;20135;-76
2022/06/23 05:02:02;;;;;;;2.83;0.52;;;21.60;65.00;;;;;;4996474;28;20056;-76
2022/06/23 05:04:38;;;;;;;2.22;0.43;;;21.70;64.00;;;;;;4987391;28;20420;-76
2022/06/23 05:07:18;;;;;;;1.13;0.30;;;21.90;63.30;;;;;;4990371;28;20063;-76
2022/06/23 05:09:46;;;;;;;1.83;0.50;;;21.90;62.60;;;;;;4987373;28;20045;-76
2022/06/23 05:12:28;;;;;;;2.58;0.40;;;21.70;62.90;;;;;;4988247;28;20757;-76
2022/06/23 05:15:08;;;;;;;1.20;0.40;;;21.80;63.10;;;;;;4983473;28;20048;-76
2022/06/23 05:17:42;;;;;;;4.03;0.45;;;21.80;62.40;;;;;;4987996;28;20474;-76
2022/06/23 05:20:38;;;;;;;0.73;0.30;;;22.00;61.30;;;;;;4987536;28;22051;-77
2022/06/23 05:23:12;;;;;;;2.05;0.25;;;22.10;61.50;;;;;;4983596;28;21875;-75
2022/06/23 05:25:46;;;;;;;1.45;0.40;;;22.20;61.10;;;;;;4971670;28;20049;-75
2022/06/23 05:28:38;;;;;;;1.52;0.30;;;22.40;60.70;;;;;;4987018;28;20052;-76
2022/06/23 05:31:15;;;;;;;1.87;0.50;;;22.40;59.60;;;;;;4983701;28;20102;-77
2022/06/23 05:33:46;;;;;;;4.28;0.40;;;22.50;59.90;;;;;;4945951;28;1155814;-76
2022/06/23 05:36:24;;;;;;;1.73;0.30;;;22.70;58.90;;;;;;4978311;28;22039;-76
2022/06/23 05:38:57;;;;;;;1.95;0.30;;;22.70;58.80;;;;;;4974617;28;20285;-76
2022/06/23 05:41:47;;;;;;;0.88;0.38;;;22.70;58.90;;;;;;4970276;28;20052;-76
2022/06/23 05:44:28;;;;;;;2.80;0.30;;;22.70;57.90;;;;;;4988253;28;22255;-76
2022/06/23 05:46:59;;;;;;;0.80;0.20;;;22.90;56.40;;;;;;4985449;28;20087;-76
2022/06/23 05:49:30;;;;;;;1.55;0.30;;;23.10;55.60;;;;;;4986824;28;20048;-76
2022/06/23 05:52:09;;;;;;;1.48;0.20;;;23.20;55.10;;;;;;4978068;28;20435;-76
2022/06/23 05:54:41;;;;;;;0.88;0.30;;;23.50;54.70;;;;;;4988702;28;20060;-76
2022/06/23 05:57:32;;;;;;;2.20;0.32;;;23.50;53.60;;;;;;4985784;28;20143;-76
2022/06/23 06:00:23;;;;;;;1.48;0.28;;;23.60;54.10;;;;;;4980753;28;20708;-76
2022/06/23 06:03:01;;;;;;;0.80;0.30;;;23.60;53.50;;;;;;4974086;28;20304;-77
2022/06/23 06:05:38;;;;;;;0.88;0.30;;;23.80;53.80;;;;;;4977393;28;20084;-77
2022/06/23 06:08:14;;;;;;;1.67;0.30;;;24.10;53.90;;;;;;4998899;28;20715;-76
2022/06/23 06:10:42;;;;;;;2.63;0.30;;;24.30;53.00;;;;;;4975021;28;20045;-76
2022/06/23 06:13:25;;;;;;;2.85;0.40;;;24.30;51.90;;;;;;4987982;28;20408;-76
2022/06/23 06:15:58;;;;;;;0.95;0.30;;;24.30;52.10;;;;;;4986192;28;20041;-76
2022/06/23 06:18:35;;;;;;;0.65;0.30;;;24.50;51.80;;;;;;4988413;28;20045;-76
2022/06/23 06:21:07;;;;;;;1.25;0.50;;;24.70;52.10;;;;;;4986725;28;20096;-77
2022/06/23 06:23:43;;;;;;;0.55;0.22;;;25.00;52.10;;;;;;4985010;28;20084;-76
2022/06/23 06:26:15;;;;;;;1.17;0.50;;;24.90;50.30;;;;;;4972740;28;20049;-76
2022/06/23 06:28:43;;;;;;;1.23;0.40;;;24.90;50.40;;;;;;4987985;28;20106;-76
2022/06/23 06:31:31;;;;;;;0.85;0.20;;;25.00;51.70;;;;;;4986780;28;20048;-76
2022/06/23 06:34:09;;;;;;;2.00;0.40;;;25.30;50.60;;;;;;5004494;28;20178;-76
2022/06/23 06:36:43;;;;;;;1.90;0.30;;;25.50;49.50;;;;;;4972336;28;22157;-77
2022/06/23 06:39:15;;;;;;;0.70;0.20;;;25.60;51.10;;;;;;4985600;28;20048;-77
2022/06/23 06:41:46;;;;;;;1.10;0.30;;;25.50;48.60;;;;;;4969369;28;20104;-76
2022/06/23 06:44:16;;;;;;;2.78;0.32;;;25.30;49.20;;;;;;4990709;28;20045;-76
2022/06/23 06:46:44;;;;;;;0.80;0.20;;;25.50;49.70;;;;;;4971957;28;20045;-76
2022/06/23 06:49:18;;;;;;;1.35;0.20;;;25.80;49.60;;;;;;4986507;28;20193;-76
2022/06/23 06:51:47;;;;;;;0.77;0.20;;;25.80;49.30;;;;;;4986666;28;20049;-75
2022/06/23 06:54:26;;;;;;;0.70;0.40;;;25.70;48.50;;;;;;4985726;28;20202;-75
2022/06/23 06:56:56;;;;;;;1.10;0.20;;;25.70;49.40;;;;;;4982399;28;20150;-75
2022/06/23 06:59:45;;;;;;;1.30;0.30;;;25.70;48.90;;;;;;4986092;28;20058;-77
2022/06/23 07:02:14;;;;;;;0.60;0.30;;;25.90;48.50;;;;;;4983855;28;20060;-77
2022/06/23 07:04:52;;;;;;;1.92;0.60;;;25.90;48.30;;;;;;4987639;28;20057;-76
2022/06/23 07:07:23;;;;;;;0.73;0.28;;;25.90;48.20;;;;;;4982786;28;20055;-76
2022/06/23 07:09:59;;;;;;;2.88;0.30;;;25.70;47.90;;;;;;4982787;28;20041;-76
2022/06/23 07:12:49;;;;;;;1.08;0.30;;;25.80;49.10;;;;;;4985024;28;20917;-76
2022/06/23 07:15:22;;;;;;;1.30;0.32;;;25.90;48.50;;;;;;4985993;28;20974;-76
2022/06/23 07:18:06;;;;;;;0.80;0.25;;;25.90;48.40;;;;;;5029147;28;20208;-76
2022/06/23 07:20:44;;;;;;;3.25;0.30;;;26.00;47.90;;;;;;5025197;28;20061;-76
2022/06/23 07:23:23;;;;;;;3.08;0.30;;;26.30;48.80;;;;;;5033331;28;20057;-76
2022/06/23 07:26:14;;;;;;;1.13;0.30;;;26.40;48.70;;;;;;5015985;28;20087;-76
2022/06/23 07:28:48;;;;;;;1.45;0.35;;;26.50;48.70;;;;;;5010416;28;20585;-75
2022/06/23 07:31:26;;;;;;;0.57;0.35;;;26.30;48.60;;;;;;4969120;28;20045;-76
2022/06/23 07:34:07;;;;;;;0.68;0.20;;;26.10;49.00;;;;;;4980295;28;20682;-76
2022/06/23 07:36:47;;;;;;;0.63;0.40;;;26.00;48.40;;;;;;4968822;28;22200;-76
2022/06/23 07:39:20;;;;;;;1.50;0.30;;;25.80;48.00;;;;;;4993124;28;20060;-76
2022/06/23 07:42:19;;;;;;;0.77;0.50;;;25.80;48.70;;;;;;4971178;28;21352;-76
2022/06/23 07:44:58;;;;;;;2.35;0.40;;;25.90;49.10;;;;;;4981271;28;20048;-76
2022/06/23 07:47:26;;;;;;;1.67;0.40;;;26.00;47.90;;;;;;4979466;28;20715;-76
2022/06/23 07:49:55;;;;;;;0.80;0.30;;;26.30;49.30;;;;;;4982034;28;20067;-75
2022/06/23 07:52:23;;;;;;;2.42;0.40;;;26.50;48.50;;;;;;4985707;28;20052;-75
2022/06/23 07:54:51;;;;;;;0.80;0.30;;;26.70;47.70;;;;;;4985316;28;20911;-76
2022/06/23 07:57:18;;;;;;;5.13;0.55;;;26.90;47.90;;;;;;4984803;28;20080;-76
2022/06/23 07:59:58;;;;;;;1.08;0.30;;;27.00;46.80;;;;;;4985962;28;20411;-75
2022/06/23 08:02:42;;;;;;;1.45;0.30;;;27.10;47.20;;;;;;4968678;28;20076;-76
2022/06/23 08:05:23;;;;;;;1.33;0.30;;;27.10;46.00;;;;;;4987237;28;20049;-76
2022/06/23 08:07:50;;;;;;;6.22;0.30;;;27.20;46.90;;;;;;4981697;28;20049;-76
2022/06/23 08:10:22;;;;;;;1.23;0.40;;;26.90;45.90;;;;;;4985882;28;20053;-76
2022/06/23 08:12:59;;;;;;;1.33;0.30;;;27.10;46.80;;;;;;4978482;28;22188;-76
2022/06/23 08:19:01;;;;;;;1.65;0.30;;;27.30;45.90;;;;;;4986043;28;20654;-76
2022/06/23 08:21:33;;;;;;;2.63;0.45;;;27.20;46.00;;;;;;4967466;28;20224;-76
2022/06/23 08:24:11;;;;;;;0.85;0.40;;;27.30;46.30;;;;;;4987008;28;20154;-77
2022/06/23 08:26:44;;;;;;;0.82;0.30;;;27.50;45.20;;;;;;4985767;28;20163;-76
2022/06/23 08:29:15;;;;;;;2.17;0.88;;;27.60;45.10;;;;;;4986766;28;20179;-76
2022/06/23 08:31:43;;;;;;;2.35;0.40;;;27.50;45.60;;;;;;4989507;28;20056;-77
2022/06/23 08:34:34;;;;;;;2.33;0.20;;;27.40;44.70;;;;;;5005169;28;20048;-77
2022/06/23 08:37:18;;;;;;;1.95;0.40;;;27.40;43.90;;;;;;4992565;28;20049;-77
2022/06/23 08:39:57;;;;;;;0.60;0.40;;;27.10;45.30;;;;;;4992832;28;20155;-77
2022/06/23 08:42:49;;;;;;;1.00;0.35;;;27.20;45.30;;;;;;4992995;28;20052;-77
2022/06/23 08:45:26;;;;;;;0.90;0.30;;;27.40;44.70;;;;;;4995445;28;20057;-77
2022/06/23 08:48:22;;;;;;;0.85;0.30;;;27.50;45.20;;;;;;4982549;28;20133;-77
2022/06/23 08:51:00;;;;;;;1.42;0.32;;;27.70;45.70;;;;;;4972222;28;20067;-76
2022/06/23 08:53:46;;;;;;;0.95;0.45;;;27.90;44.20;;;;;;4994350;28;20601;-77
2022/06/23 08:56:24;;;;;;;1.48;0.20;;;27.90;44.50;;;;;;4980295;28;20519;-77
2022/06/23 08:59:25;;;;;;;2.35;0.20;;;27.90;44.00;;;;;;4983686;28;20192;-76
2022/06/23 09:02:05;;;;;;;1.40;0.20;;;28.00;44.40;;;;;;4985188;28;20182;-77
2022/06/23 09:04:49;;;;;;;1.63;0.20;;;28.10;44.80;;;;;;4990354;28;20057;-76
2022/06/23 09:07:28;;;;;;;0.75;0.25;;;28.10;43.40;;;;;;4980077;28;20158;-77
2022/06/23 09:10:16;;;;;;;1.45;0.30;;;27.90;44.50;;;;;;4997813;28;20225;-78
2022/06/23 09:12:54;;;;;;;1.20;0.30;;;27.90;43.20;;;;;;4980425;28;22175;-76
2022/06/23 09:15:37;;;;;;;0.60;0.30;;;27.90;44.40;;;;;;4988734;28;20126;-77
2022/06/23 09:18:31;;;;;;;0.82;0.22;;;27.90;44.10;;;;;;4993241;28;20095;-78
2022/06/23 09:21:29;;;;;;;2.60;0.30;;;28.00;44.60;;;;;;4990923;28;20048;-77
2022/06/23 09:24:11;;;;;;;2.80;0.30;;;28.00;43.60;;;;;;5005556;28;20049;-76
2022/06/23 09:27:00;;;;;;;1.05;0.50;;;27.90;43.10;;;;;;4975745;28;20615;-77
2022/06/23 09:29:36;;;;;;;1.20;0.20;;;27.90;44.30;;;;;;4989849;28;20538;-77
2022/06/23 09:32:24;;;;;;;1.15;0.32;;;28.00;43.20;;;;;;4984703;28;20568;-76
2022/06/23 09:35:12;;;;;;;1.70;0.50;;;28.00;43.80;;;;;;4989026;28;20053;-77
2022/06/23 09:38:17;;;;;;;0.60;0.20;;;28.10;44.40;;;;;;4984829;28;20041;-77
2022/06/23 09:40:50;;;;;;;2.78;0.40;;;27.90;43.20;;;;;;4983667;28;20119;-76
2022/06/23 09:43:45;;;;;;;1.48;0.45;;;27.90;44.10;;;;;;4989752;28;20877;-77
2022/06/23 09:46:27;;;;;;;1.45;0.30;;;28.00;43.00;;;;;;4970601;28;20524;-78
2022/06/23 09:49:20;;;;;;;2.22;0.30;;;28.00;42.80;;;;;;4987766;28;20056;-77
2022/06/23 09:52:06;;;;;;;2.00;0.20;;;27.90;43.40;;;;;;5000596;28;20724;-77
2022/06/23 09:54:52;;;;;;;1.52;0.30;;;27.90;42.60;;;;;;4985502;28;20053;-77
2022/06/23 09:58:07;;;;;;;2.50;0.30;;;28.10;44.50;;;;;;4988974;28;20257;-77
2022/06/23 10:01:04;;;;;;;3.50;0.30;;;28.00;42.20;;;;;;4978263;28;20061;-77
2022/06/23 10:03:49;;;;;;;0.57;0.20;;;28.10;42.90;;;;;;4987251;28;20154;-77
2022/06/23 10:06:41;;;;;;;1.95;0.30;;;28.00;43.50;;;;;;4974653;28;20079;-77
2022/06/23 10:09:23;;;;;;;3.25;0.38;;;28.10;43.40;;;;;;4985418;28;20595;-77
2022/06/23 10:12:03;;;;;;;1.35;0.20;;;27.90;43.70;;;;;;5001290;28;20816;-77
2022/06/23 10:14:51;;;;;;;0.88;0.30;;;28.10;43.30;;;;;;4995497;28;20174;-77
2022/06/23 10:17:41;;;;;;;1.45;0.30;;;28.00;42.50;;;;;;4990073;28;20544;-77
2022/06/23 10:20:30;;;;;;;1.00;0.20;;;28.30;43.50;;;;;;4984761;28;20447;-77
2022/06/23 10:23:00;;;;;;;0.30;0.20;;;28.70;43.50;;;;;;4973914;28;20088;-77
2022/06/23 10:25:57;;;;;;;1.38;0.30;;;28.60;42.00;;;;;;4989774;28;20680;-77
2022/06/23 10:28:57;;;;;;;1.25;0.30;;;28.60;42.10;;;;;;4979923;28;20057;-77
2022/06/23 10:31:43;;;;;;;0.63;0.30;;;28.30;42.00;;;;;;4986649;28;20728;-78
2022/06/23 10:34:43;;;;;;;2.88;0.43;;;28.60;42.50;;;;;;4989164;28;20064;-77
2022/06/23 10:37:53;;;;;;;1.70;0.30;;;28.90;44.90;;;;;;5004156;28;20056;-77
2022/06/23 10:40:57;;;;;;;0.73;0.20;;;29.00;42.50;;;;;;4993501;28;20855;-77
2022/06/23 10:43:44;;;;;;;5.13;0.50;;;28.90;41.90;;;;;;4991146;28;20088;-77
2022/06/23 10:46:30;;;;;;;3.95;0.30;;;28.50;41.40;;;;;;4988638;28;20700;-76
2022/06/23 10:49:07;;;;;;;3.38;0.30;;;28.60;41.80;;;;;;4988432;28;20045;-77
2022/06/23 10:51:52;;;;;;;0.73;0.30;;;28.60;42.10;;;;;;4996363;28;22015;-77
2022/06/23 10:54:44;;;;;;;1.65;0.20;;;28.50;42.40;;;;;;4998161;28;20053;-77
2022/06/23 10:57:22;;;;;;;1.67;0.38;;;28.50;41.90;;;;;;4997420;28;20682;-77
2022/06/23 11:00:08;;;;;;;1.80;0.30;;;28.10;40.90;;;;;;4995386;28;20106;-79
2022/06/23 11:02:57;;;;;;;5.18;0.65;;;28.40;42.40;;;;;;4994573;28;20103;-78
2022/06/23 11:05:39;;;;;;;1.70;0.30;;;28.50;42.20;;;;;;4995808;28;20167;-77
2022/06/23 11:08:19;;;;;;;0.73;0.30;;;28.70;41.80;;;;;;4994657;28;20041;-78
2022/06/23 11:11:19;;;;;;;1.88;0.38;;;28.90;42.60;;;;;;4992464;28;20053;-77
2022/06/23 11:13:49;;;;;;;1.13;0.40;;;29.00;43.50;;;;;;4972472;28;20049;-76
2022/06/23 11:16:25;;;;;;;1.02;0.30;;;28.50;41.30;;;;;;4986066;28;20875;-77
2022/06/23 11:19:00;;;;;;;1.20;0.30;;;28.30;42.10;;;;;;4987301;28;20041;-76
2022/06/23 11:21:47;;;;;;;1.10;0.30;;;28.20;42.10;;;;;;4991474;28;20183;-76
2022/06/23 11:24:23;;;;;;;1.00;0.20;;;27.90;42.20;;;;;;4976200;28;20045;-75
2022/06/23 11:27:08;;;;;;;0.47;0.20;;;27.70;41.80;;;;;;4981995;28;20223;-76
2022/06/23 11:30:04;;;;;;;0.40;0.20;;;27.90;43.10;;;;;;4988147;28;20587;-76
2022/06/23 11:32:52;;;;;;;3.00;0.20;;;27.90;42.00;;;;;;4976496;28;20236;-76
2022/06/23 11:35:43;;;;;;;2.42;0.32;;;28.00;41.90;;;;;;4974516;28;20048;-76
2022/06/23 11:38:36;;;;;;;3.25;0.32;;;28.50;42.00;;;;;;4981459;28;22078;-75
2022/06/23 11:41:28;;;;;;;2.78;0.20;;;28.80;41.90;;;;;;4991905;28;21793;-76
2022/06/23 11:44:11;;;;;;;2.70;0.28;;;28.90;40.60;;;;;;4984742;28;20077;-76
2022/06/23 11:47:05;;;;;;;0.40;0.20;;;28.80;40.70;;;;;;4973258;28;20052;-77
2022/06/23 11:49:45;;;;;;;0.52;0.30;;;28.70;41.20;;;;;;4968214;28;20226;-76
2022/06/23 11:52:30;;;;;;;1.73;0.32;;;28.70;41.60;;;;;;4987084;28;20056;-76
2022/06/23 11:55:22;;;;;;;11.57;0.80;;;28.60;41.30;;;;;;4984066;28;20231;-76
2022/06/23 11:58:21;;;;;;;3.47;0.40;;;28.90;41.80;;;;;;4987103;28;20076;-75
2022/06/23 12:01:07;;;;;;;1.10;0.30;;;28.70;40.10;;;;;;4994880;28;20100;-75
2022/06/23 12:04:12;;;;;;;0.98;0.30;;;28.70;42.00;;;;;;4987920;28;20049;-76
2022/06/23 12:07:08;;;;;;;2.50;0.40;;;28.90;42.70;;;;;;4993401;28;20065;-76
2022/06/23 12:09:54;;;;;;;6.13;0.30;;;28.90;40.10;;;;;;4988791;28;20389;-76
2022/06/23 12:12:23;;;;;;;1.17;0.30;;;28.70;42.00;;;;;;4991594;28;20125;-77
2022/06/23 12:14:51;;;;;;;0.85;0.40;;;28.60;41.60;;;;;;4988259;28;20053;-74
2022/06/23 12:17:24;;;;;;;5.97;0.93;;;28.30;41.30;;;;;;5006906;28;20130;-76
2022/06/23 12:20:03;;;;;;;1.42;0.40;;;28.10;41.70;;;;;;4984736;28;20048;-77
2022/06/23 12:22:58;;;;;;;2.13;0.20;;;28.00;39.90;;;;;;4984869;28;20045;-76
2022/06/23 12:25:43;;;;;;;3.15;0.38;;;28.20;41.70;;;;;;4991696;28;20083;-77
2022/06/23 12:28:23;;;;;;;3.00;0.30;;;28.50;40.20;;;;;;4991080;28;20239;-76
2022/06/23 12:31:02;;;;;;;1.58;0.35;;;28.20;40.20;;;;;;4997166;28;20041;-76
2022/06/23 12:34:05;;;;;;;1.70;0.30;;;28.20;41.40;;;;;;4988048;28;21969;-75
2022/06/23 12:36:33;;;;;;;1.58;0.30;;;28.20;39.90;;;;;;4990166;28;20053;-75
2022/06/23 12:39:26;;;;;;;0.50;0.20;;;28.30;42.10;;;;;;4998273;28;20053;-75
2022/06/23 12:42:06;;;;;;;0.85;0.30;;;28.30;41.30;;;;;;4987649;28;20720;-75
2022/06/23 12:44:52;;;;;;;1.52;0.30;;;28.10;41.60;;;;;;4980539;28;20053;-77
2022/06/23 12:47:25;;;;;;;1.35;0.30;;;28.10;41.00;;;;;;4979930;28;20053;-76
2022/06/23 12:50:20;;;;;;;0.90;0.30;;;28.40;41.70;;;;;;4983256;28;20045;-75
2022/06/23 12:52:50;;;;;;;1.33;0.30;;;28.50;41.60;;;;;;4985141;28;20134;-76
2022/06/23 12:56:04;;;;;;;1.73;0.30;;;28.50;41.90;;;;;;4990499;28;20045;-75
2022/06/23 12:58:40;;;;;;;3.60;0.50;;;28.50;40.90;;;;;;4982804;28;20566;-75
2022/06/23 13:01:13;;;;;;;0.43;0.20;;;28.50;41.10;;;;;;4984360;28;20060;-75
2022/06/23 13:03:50;;;;;;;0.77;0.30;;;28.20;42.10;;;;;;5002542;28;20049;-74
2022/06/23 13:06:35;;;;;;;3.42;0.40;;;27.90;41.40;;;;;;4982007;28;22255;-75
2022/06/23 13:09:19;;;;;;;1.58;0.20;;;27.90;42.50;;;;;;4984368;28;20053;-75
2022/06/23 13:12:22;;;;;;;0.80;0.30;;;27.90;42.10;;;;;;4981699;28;22514;-75
2022/06/23 13:14:49;;;;;;;;;;;27.90;41.10;;;;;;4984568;28;20143;-75
2022/06/23 13:17:25;;;;;;;2.08;0.30;;;27.90;42.30;;;;;;4972605;28;19968;-76
2022/06/23 13:20:04;;;;;;;3.25;0.40;;;28.10;42.70;;;;;;4967861;28;20669;-75
2022/06/23 13:22:56;;;;;;;1.55;0.30;;;28.10;41.80;;;;;;4965976;28;20052;-75
2022/06/23 13:25:29;;;;;;;2.83;0.30;;;28.10;42.00;;;;;;4988482;28;20050;-75
2022/06/23 13:27:57;;;;;;;1.45;0.57;;;28.10;43.00;;;;;;4986772;28;20501;-75
2022/06/23 13:30:47;;;;;;;1.40;0.30;;;28.20;43.80;;;;;;4989596;28;20156;-75
2022/06/23 13:33:46;;;;;;;3.60;0.40;;;28.10;42.70;;;;;;4988292;28;20060;-76
2022/06/23 13:36:25;;;;;;;1.02;0.30;;;28.10;42.70;;;;;;4967419;28;20137;-76
2022/06/23 13:39:28;;;;;;;2.65;0.30;;;28.20;42.80;;;;;;4986388;28;20065;-75
2022/06/23 13:42:15;;;;;;;3.83;0.38;;;28.30;42.90;;;;;;4986361;28;20475;-76
2022/06/23 13:44:51;;;;;;;2.17;0.50;;;28.40;42.30;;;;;;4979238;28;20193;-75
2022/06/23 13:47:24;;;;;;;1.30;0.60;;;28.50;42.20;;;;;;4987428;28;20130;-75
2022/06/23 13:49:57;;;;;;;2.50;0.60;;;28.50;41.70;;;;;;4992708;28;20045;-77
2022/06/23 13:52:33;;;;;;;1.35;0.50;;;28.60;43.10;;;;;;4989142;28;20403;-75
2022/06/23 13:55:19;;;;;;;1.30;0.32;;;28.60;41.90;;;;;;4984353;28;20052;-76
2022/06/23 13:58:11;;;;;;;0.70;0.50;;;28.50;41.30;;;;;;4993132;28;20068;-76
2022/06/23 14:00:52;;;;;;;1.35;0.30;;;28.60;42.40;;;;;;4986971;28;20678;-76
2022/06/23 14:03:38;;;;;;;0.55;0.20;;;28.70;42.00;;;;;;4983943;28;20089;-75
2022/06/23 14:06:35;;;;;;;1.65;0.20;;;28.70;41.70;;;;;;4980012;28;20463;-76
2022/06/23 14:09:22;;;;;;;0.75;0.47;;;28.70;40.90;;;;;;4991196;28;20060;-74